• Join FlightAware (Why Join?)
  • Login
  • US Flag 
11:57AM EDT


 

Airport Tracker/Info


-or-


 

Live Flight TrackerFlight Track Log ✈ N529ET ✈ 03-May-2013 ✈ KBAF - KMMU

Flight Track Log - Related Links

Times and Time Zones

All times are in EDT time to prevent confusion due to time zone crossing. See the N529ET flight status page for this flight to view local times or setup timezone preferences in your user account.

Time Position Orientation Groundspeed Altitude Reporting Facility
EDT Latitude Longitude Course Direction KTS MPH feet Rate Location/Type
12:04PM 42.1831 -72.7708 281° West 157 181 2,900  Level Boston Center
12:05PM 42.1725 -72.8406 258° West 182 209 4,800 1,020 Climbing Boston Center
12:06PM 42.1661 -72.9136 263° West 228 262 5,000 180 Climbing Boston Center
12:07PM 42.1572 -73.0003 262° West 233 268 5,200 900 Climbing Boston Center
12:08PM 42.1464 -73.0814 260° West 233 268 7,100 1,860 Climbing Boston Center
12:09PM 42.1353 -73.1764 261° West 233 268 9,400 1,500 Climbing Boston Center
12:10PM 42.1264 -73.2575 262° West 222 255 10,100 300 Climbing Boston Center
12:11PM 42.1197 -73.3442 264° West 222 255 10,000 -60 Descending Boston Center
12:12PM 42.1125 -73.4364 264° West 237 273 10,000  Level Boston Center
12:13PM 42.1056 -73.5231 264° West 242 278 10,000  Level Boston Center
12:14PM 42.1006 -73.6097 266° West 242 278 10,000  Level Boston Center
12:15PM 42.0933 -73.6992 264° West 242 278 10,000  Level Boston Center
12:16PM 42.0881 -73.7831 265° West 236 272 10,000  Level Boston Center
12:17PM 42.0808 -73.8694 264° West 236 272 10,100  Climbing Boston Center
12:18PM 42.0733 -73.9617 264° West 236 272 10,000 -60 Descending Boston Center
12:19PM 42.0681 -74.0481 265° West 236 272 10,000 -120 Level Boston Center
12:20PM 42.0564 -74.1261 259° West 241 277 9,800 -600 Descending Boston Center
12:21PM 42.0014 -74.1917 222° Southwest 225 259 8,900 -780 Descending Boston Center
12:22PM 41.9528 -74.2350 214° Southwest 235 270 8,300 -720 Descending Boston Center
12:23PM 41.8956 -74.2892 215° Southwest 241 277 7,500 -660 Descending Boston Center
12:24PM 41.8489 -74.3353 216° Southwest 241 277 7,000 -300 Descending Boston Center
12:25PM 41.7958 -74.3894 217° Southwest 235 270 7,000  Level Boston Center
12:26PM 41.7536 -74.4269 214° Southwest 219 252 7,000  Level Boston Center
12:27PM 41.7047 -74.4756 217° Southwest 214 246 7,000  Level Boston Center
12:28PM 41.6494 -74.5294 216° Southwest 208 239 7,000 -240 Level Boston Center
12:29PM 41.5969 -74.5608 204° Southwest 202 232 6,600 -540 Descending Boston Center
12:30PM 41.5425 -74.5731 190° South 202 232 6,000 -300 Descending Boston Center
12:31PM 41.4881 -74.5850 189° South 207 238 6,000  Level Boston Center
12:32PM 41.4336 -74.5969 189° South 207 238 6,000  Level Boston Center
12:34PM 41.3500 -74.6167 190° South 203 234 6,000  Level New York TRACON
12:35PM 41.3000 -74.6000 166° South 195 224 6,000 -240 Level New York TRACON
12:36PM 41.2500 -74.5833 166° South 198 228 5,600 -720 Descending New York TRACON
12:37PM 41.1833 -74.5500 159° South 208 239 4,500 -840 Descending New York TRACON
12:38PM 41.1333 -74.5333 166° South 203 234 4,000 -600 Descending New York TRACON
12:39PM 41.0833 -74.5167 166° South 188 216 3,400 -480 Descending New York TRACON
12:40PM 41.0333 -74.5000 166° South 181 208 3,000 -240 Descending New York TRACON
12:41PM 40.9833 -74.4833 166° South 169 194 3,000  Level New York TRACON
12:42PM 40.9333 -74.4667 166° South 167 192 3,000  Level New York TRACON
12:43PM 40.9000 -74.4500 159° South 177 204 3,000 -180 Level New York TRACON
12:44PM 40.8500 -74.4500 180° South 142 163 2,700 -480 Descending New York TRACON
12:45PM 40.8167 -74.4667 201° Southwest 117 135 2,000 -600 Descending New York TRACON
12:46PM 40.8000 -74.4667 180° South 123 142 1,600 -600 Descending New York TRACON
12:47PM 40.7833 -74.4333 123° Southeast 89 102 800 -780 Descending New York TRACON
12:49PM 40.7833 -74.4000 150° Southeast  Level FlightAware Approximate
12:56PM 40.7993 -74.4149 150° Southeast  Level Estimated
12:57PM 40.7993 -74.4149 150° Southeast  Level Estimated